Time;durP1;ratioP1;P1;durP2;ratioP2;P2;SDS_P1;SDS_P2;PMS_P1;PMS_P2;Temp;Humidity;BMP_temperature;BMP_pressure;BME280_temperature;BME280_humidity;BME280_pressure;Samples;Min_cycle;Max_cycle;Signal;HPM_P1;HPM_P2
2023/05/20 00:01:32;;;;;;;;;;;10.50;99.90;;;;;;6129247;23;19932;-71
2023/05/20 00:03:58;;;;;;;;;;;10.50;99.90;;;;;;6155921;23;19921;-71
2023/05/20 00:06:26;;;;;;;;;;;10.50;99.90;;;;;;6155528;23;20389;-71
2023/05/20 00:08:51;;;;;;;;;;;10.40;99.90;;;;;;6129183;23;19968;-72
2023/05/20 00:11:17;;;;;;;;;;;10.40;99.90;;;;;;6155114;23;19921;-72
2023/05/20 00:13:43;;;;;;;;;;;10.40;99.90;;;;;;6127072;23;19996;-71
2023/05/20 00:16:08;;;;;;;;;;;10.40;99.90;;;;;;6128259;23;19920;-71
2023/05/20 00:18:34;;;;;;;;;;;10.50;99.90;;;;;;6127959;23;19920;-71
2023/05/20 00:20:59;;;;;;;;;;;10.30;99.90;;;;;;6127456;23;20396;-71
2023/05/20 00:23:25;;;;;;;;;;;10.30;99.90;;;;;;6155916;23;20313;-71
2023/05/20 00:25:50;;;;;;;;;;;10.30;99.90;;;;;;6129159;23;19921;-72
2023/05/20 00:28:16;;;;;;;;;;;10.30;99.90;;;;;;6155417;23;19952;-71
2023/05/20 00:30:42;;;;;;;;;;;10.30;99.90;;;;;;6155755;23;19920;-71
2023/05/20 00:33:07;;;;;;;;;;;10.40;99.90;;;;;;6154791;23;19928;-72
2023/05/20 00:35:33;;;;;;;;;;;10.20;99.90;;;;;;6128553;23;19921;-71
2023/05/20 00:37:58;;;;;;;;;;;10.20;99.90;;;;;;6128867;23;19956;-71
2023/05/20 00:40:24;;;;;;;;;;;10.20;99.90;;;;;;6156041;23;19920;-71
2023/05/20 00:42:50;;;;;;;;;;;10.20;99.90;;;;;;6128099;23;19927;-72
2023/05/20 00:45:19;;;;;;;;;;;10.10;99.90;;;;;;6155654;23;19948;-71
2023/05/20 00:47:44;;;;;;;;;;;10.10;99.90;;;;;;6128854;23;20329;-71
2023/05/20 00:50:10;;;;;;;;;;;10.20;99.90;;;;;;6155215;23;19947;-71
2023/05/20 00:52:36;;;;;;;;;;;10.10;99.90;;;;;;6156004;23;19916;-71
2023/05/20 00:55:02;;;;;;;;;;;10.10;99.90;;;;;;6128549;23;19995;-71
2023/05/20 00:57:28;;;;;;;;;;;10.10;99.90;;;;;;6128981;23;19996;-71
2023/05/20 00:59:54;;;;;;;;;;;10.10;99.90;;;;;;6129102;23;19916;-71
2023/05/20 01:02:20;;;;;;;;;;;10.10;99.90;;;;;;6154669;23;19920;-71
2023/05/20 01:04:46;;;;;;;;;;;10.10;99.90;;;;;;6129167;23;19921;-71
2023/05/20 01:07:15;;;;;;;;;;;10.10;99.90;;;;;;6128983;23;19920;-71
2023/05/20 01:09:41;;;;;;;;;;;10.10;99.90;;;;;;6129191;23;19928;-71
2023/05/20 01:12:16;;;;;;;;;;;10.10;99.90;;;;;;6156548;23;20241;-71
2023/05/20 01:14:48;;;;;;;;;;;10.00;99.90;;;;;;6131664;23;19920;-71
2023/05/20 01:17:16;;;;;;;;;;;10.00;99.90;;;;;;6129415;23;19920;-71
2023/05/20 01:19:46;;;;;;;;;;;10.00;99.90;;;;;;6160035;23;19926;-71
2023/05/20 01:22:13;;;;;;;;;;;10.00;99.90;;;;;;6134137;23;19963;-71
2023/05/20 01:24:42;;;;;;;;;;;10.00;99.90;;;;;;6133583;23;19921;-71
2023/05/20 01:27:14;;;;;;;;;;;9.90;99.90;;;;;;6131366;23;20338;-71
2023/05/20 01:29:40;;;;;;;;;;;9.90;99.90;;;;;;6157672;23;20048;-71
2023/05/20 01:32:17;;;;;;;;;;;9.90;99.90;;;;;;6129877;23;20040;-71
2023/05/20 01:34:44;;;;;;;;;;;9.90;99.90;;;;;;6131401;23;20372;-71
2023/05/20 01:37:09;;;;;;;;;;;9.90;99.90;;;;;;6156779;23;19920;-71
2023/05/20 01:39:37;;;;;;;;;;;9.90;99.90;;;;;;6131205;23;19921;-71
2023/05/20 01:42:02;;;;;;;;;;;9.80;99.90;;;;;;6130698;23;20337;-71
2023/05/20 01:44:28;;;;;;;;;;;9.90;99.90;;;;;;6130687;23;19948;-71
2023/05/20 01:46:54;;;;;;;;;;;9.90;99.90;;;;;;6130521;23;20249;-71
2023/05/20 01:49:19;;;;;;;;;;;9.90;99.90;;;;;;6131033;23;19921;-71
2023/05/20 01:51:45;;;;;;;;;;;10.00;99.90;;;;;;6156871;23;19949;-71
2023/05/20 01:54:10;;;;;;;;;;;9.80;99.90;;;;;;6130352;23;19944;-72
2023/05/20 01:56:36;;;;;;;;;;;9.80;99.90;;;;;;6156815;23;19921;-72
2023/05/20 01:59:01;;;;;;;;;;;9.80;99.90;;;;;;6156315;23;19928;-71
2023/05/20 02:01:27;;;;;;;;;;;9.80;99.90;;;;;;6130581;23;19921;-71
2023/05/20 02:03:52;;;;;;;;;;;9.80;99.90;;;;;;6157032;23;19924;-72
2023/05/20 02:06:18;;;;;;;;;;;9.80;99.90;;;;;;6130621;23;19975;-71
2023/05/20 02:08:43;;;;;;;;;;;9.80;99.90;;;;;;6130562;23;19948;-71
2023/05/20 02:11:09;;;;;;;;;;;9.70;99.90;;;;;;6156786;23;19924;-71
2023/05/20 02:13:34;;;;;;;;;;;9.80;99.90;;;;;;6156012;23;19945;-71
2023/05/20 02:16:00;;;;;;;;;;;9.70;99.90;;;;;;6156479;23;19921;-72
2023/05/20 02:18:26;;;;;;;;;;;9.70;99.90;;;;;;6130863;23;19928;-72
2023/05/20 02:20:51;;;;;;;;;;;9.70;99.90;;;;;;6155845;23;19920;-72
2023/05/20 02:23:17;;;;;;;;;;;9.80;99.90;;;;;;6129827;23;19927;-71
2023/05/20 02:25:43;;;;;;;;;;;9.70;99.90;;;;;;6156974;23;19931;-72
2023/05/20 02:28:09;;;;;;;;;;;9.60;99.90;;;;;;6155556;23;19920;-72
2023/05/20 02:30:38;;;;;;;;;;;9.60;99.90;;;;;;6130664;23;19928;-72
2023/05/20 02:33:03;;;;;;;;;;;9.60;99.90;;;;;;6130004;23;19956;-72
2023/05/20 02:35:29;;;;;;;;;;;9.50;99.90;;;;;;6129690;23;19924;-71
2023/05/20 02:37:54;;;;;;;;;;;9.50;99.90;;;;;;6156889;23;19928;-71
2023/05/20 02:40:20;;;;;;;;;;;9.50;99.90;;;;;;6129545;23;19921;-72
2023/05/20 02:42:46;;;;;;;;;;;9.50;99.90;;;;;;6156546;23;19979;-72
2023/05/20 02:45:12;;;;;;;;;;;9.40;99.90;;;;;;6129986;23;20330;-72
2023/05/20 02:47:40;;;;;;;;;;;9.40;99.90;;;;;;6156531;23;19927;-72
2023/05/20 02:50:09;;;;;;;;;;;9.30;99.90;;;;;;6156387;23;19921;-72
2023/05/20 02:52:38;;;;;;;;;;;10.40;99.90;;;;;;6130664;23;20446;-72
2023/05/20 02:55:05;;;;;;;;;;;9.30;99.90;;;;;;6129224;23;20053;-72
2023/05/20 02:57:31;;;;;;;;;;;9.30;99.90;;;;;;6129798;23;19921;-72
2023/05/20 02:59:56;;;;;;;;;;;9.30;99.90;;;;;;6130157;23;19920;-72
2023/05/20 03:02:22;;;;;;;;;;;9.30;99.90;;;;;;6156151;23;20293;-72
2023/05/20 03:04:47;;;;;;;;;;;9.30;99.90;;;;;;6129900;23;19964;-72
2023/05/20 03:07:16;;;;;;;;;;;9.30;99.90;;;;;;6156334;23;20384;-72
2023/05/20 03:09:42;;;;;;;;;;;9.30;99.90;;;;;;6155696;23;20330;-72
2023/05/20 03:12:07;;;;;;;;;;;9.30;99.90;;;;;;6155831;23;19947;-72
2023/05/20 03:14:33;;;;;;;;;;;9.30;99.90;;;;;;6130156;23;19948;-72
2023/05/20 03:16:58;;;;;;;;;;;9.20;99.90;;;;;;6155348;23;20326;-72
2023/05/20 03:19:24;;;;;;;;;;;9.50;99.90;;;;;;6156307;23;19968;-71
2023/05/20 03:21:50;;;;;;;;;;;9.30;99.90;;;;;;6129725;23;20063;-71
2023/05/20 03:24:17;;;;;;;;;;;9.60;99.90;;;;;;6129308;23;19995;-71
2023/05/20 03:26:42;;;;;;;;;;;9.30;99.90;;;;;;6156547;23;19931;-72
2023/05/20 03:29:11;;;;;;;;;;;9.30;99.90;;;;;;6156210;23;19925;-71
2023/05/20 03:31:37;;;;;;;;;;;9.30;99.90;;;;;;6155394;23;20312;-72
2023/05/20 03:34:02;;;;;;;;;;;9.70;99.90;;;;;;6129119;23;20334;-71
2023/05/20 03:36:28;;;;;;;;;;;9.90;99.90;;;;;;6155642;23;19928;-71
2023/05/20 03:38:53;;;;;;;;;;;9.40;99.90;;;;;;6155598;23;20288;-71
2023/05/20 03:41:19;;;;;;;;;;;9.40;99.90;;;;;;6129874;23;19927;-70
2023/05/20 03:43:45;;;;;;;;;;;9.40;99.90;;;;;;6129498;23;20611;-71
2023/05/20 03:46:11;;;;;;;;;;;9.40;99.90;;;;;;6155160;23;19927;-71
2023/05/20 03:48:36;;;;;;;;;;;9.40;99.90;;;;;;6156291;23;19927;-71
2023/05/20 03:51:02;;;;;;;;;;;9.40;99.90;;;;;;6128486;23;19921;-71
2023/05/20 03:53:27;;;;;;;;;;;9.40;99.90;;;;;;6129423;23;19976;-72
2023/05/20 03:55:53;;;;;;;;;;;9.40;99.90;;;;;;6155762;23;19921;-71
2023/05/20 03:58:21;;;;;;;;;;;9.40;99.90;;;;;;6129172;23;20322;-72
2023/05/20 04:00:47;;;;;;;;;;;9.40;99.90;;;;;;6129592;23;19928;-71
2023/05/20 04:03:13;;;;;;;;;;;9.50;99.90;;;;;;6129930;23;19999;-71
2023/05/20 04:05:39;;;;;;;;;;;9.50;99.90;;;;;;6155021;23;19952;-71
2023/05/20 04:08:04;;;;;;;;;;;9.50;99.90;;;;;;6128969;23;20304;-71
2023/05/20 04:10:33;;;;;;;;;;;9.50;99.90;;;;;;6129616;23;19992;-71
2023/05/20 04:12:58;;;;;;;;;;;9.60;99.90;;;;;;6154782;23;20282;-71
2023/05/20 04:15:24;;;;;;;;;;;9.50;99.90;;;;;;6129360;23;20000;-72
2023/05/20 04:17:51;;;;;;;;;;;9.50;99.90;;;;;;6155625;23;19917;-72
2023/05/20 04:20:17;;;;;;;;;;;10.70;99.90;;;;;;6128436;23;20230;-72
2023/05/20 04:22:43;;;;;;;;;;;9.60;99.90;;;;;;6155737;23;20353;-71
2023/05/20 04:25:09;;;;;;;;;;;9.60;99.90;;;;;;6129075;23;19920;-72
2023/05/20 04:27:36;;;;;;;;;;;9.60;99.90;;;;;;6129084;23;20234;-73
2023/05/20 04:30:02;;;;;;;;;;;9.70;99.90;;;;;;6155825;23;20260;-74
2023/05/20 04:32:29;;;;;;;;;;;9.70;99.90;;;;;;6129350;23;19920;-74
2023/05/20 04:34:58;;;;;;;;;;;10.10;99.90;;;;;;6128086;23;19995;-72
2023/05/20 04:37:24;;;;;;;;;;;9.70;99.90;;;;;;6129573;23;19931;-71
2023/05/20 04:39:49;;;;;;;;;;;9.80;99.90;;;;;;6153368;23;19920;-71
2023/05/20 04:42:20;;;;;;;;;;;9.80;99.90;;;;;;6152926;23;19928;-71
2023/05/20 04:44:48;;;;;;;;;;;9.80;99.90;;;;;;6127207;23;19921;-71
2023/05/20 04:47:14;;;;;;;;;;;9.80;99.90;;;;;;6127000;23;19923;-71
2023/05/20 04:49:40;;;;;;;;;;;9.90;99.90;;;;;;6127067;23;19970;-71
2023/05/20 04:52:15;;;;;;;;;;;9.90;99.90;;;;;;6127109;23;19923;-72
2023/05/20 04:54:40;;;;;;;;;;;10.00;99.90;;;;;;6153933;23;20253;-72
2023/05/20 04:57:06;;;;;;;;;;;10.00;99.90;;;;;;6128618;23;19924;-73
2023/05/20 04:59:31;;;;;;;;;;;10.10;99.90;;;;;;6155510;23;19925;-72
2023/05/20 05:01:57;;;;;;;;;;;10.60;99.90;;;;;;6128441;23;19921;-72
2023/05/20 05:04:22;;;;;;;;;;;10.20;99.90;;;;;;6155428;23;20257;-72
2023/05/20 05:06:48;;;;;;;;;;;11.10;99.90;;;;;;6155472;23;19920;-71
2023/05/20 05:09:14;;;;;;;;;;;10.20;99.90;;;;;;6155354;23;20000;-72
2023/05/20 05:11:42;;;;;;;;;;;10.30;99.90;;;;;;6129316;23;19936;-72
2023/05/20 05:14:08;;;;;;;;;;;10.30;99.90;;;;;;6130322;23;19956;-72
2023/05/20 05:16:33;;;;;;;;;;;10.40;99.90;;;;;;6131826;23;19921;-72
2023/05/20 05:18:59;;;;;;;;;;;10.40;99.90;;;;;;6158341;23;19925;-72
2023/05/20 05:21:25;;;;;;;;;;;10.50;99.90;;;;;;6131667;23;19927;-72
2023/05/20 05:23:50;;;;;;;;;;;10.50;99.90;;;;;;6128221;23;20003;-72
2023/05/20 05:26:16;;;;;;;;;;;10.60;99.90;;;;;;6129201;23;19920;-72
2023/05/20 05:28:42;;;;;;;;;;;10.60;99.90;;;;;;6154697;23;19921;-72
2023/05/20 05:31:08;;;;;;;;;;;10.70;99.90;;;;;;6126813;23;19924;-72
2023/05/20 05:33:33;;;;;;;;;;;10.80;99.90;;;;;;6129018;23;20348;-72
2023/05/20 05:36:00;;;;;;;;;;;10.90;99.90;;;;;;6128105;23;19927;-72
2023/05/20 05:38:26;;;;;;;;;;;10.90;99.90;;;;;;6129004;23;19927;-72
2023/05/20 05:40:51;;;;;;;;;;;11.10;99.90;;;;;;6129049;23;20304;-72
2023/05/20 05:43:17;;;;;;;;;;;11.10;99.90;;;;;;6155049;23;19920;-72
2023/05/20 05:45:42;;;;;;;;;;;11.10;99.90;;;;;;6129119;23;19925;-72
2023/05/20 05:48:08;;;;;;;;;;;11.30;99.90;;;;;;6128449;23;19968;-72
2023/05/20 05:50:33;;;;;;;;;;;11.30;99.90;;;;;;6128462;23;19931;-72
2023/05/20 05:52:59;;;;;;;;;;;11.40;99.90;;;;;;6154979;23;19921;-72
2023/05/20 05:55:25;;;;;;;;;;;11.50;99.90;;;;;;6129342;23;19920;-72
2023/05/20 05:57:50;;;;;;;;;;;11.60;99.90;;;;;;6129992;23;19952;-72
2023/05/20 06:00:16;;;;;;;;;;;11.70;99.90;;;;;;6130820;23;20297;-73
2023/05/20 06:02:42;;;;;;;;;;;11.70;99.90;;;;;;6130267;23;19921;-72
2023/05/20 06:05:08;;;;;;;;;;;11.80;99.90;;;;;;6130058;23;19999;-71
2023/05/20 06:07:36;;;;;;;;;;;11.70;99.90;;;;;;6157021;23;19921;-72
2023/05/20 06:10:01;;;;;;;;;;;11.60;99.90;;;;;;6130379;23;20261;-72
2023/05/20 06:12:27;;;;;;;;;;;11.60;99.90;;;;;;6156292;23;19921;-71
2023/05/20 06:14:53;;;;;;;;;;;11.60;99.90;;;;;;6156403;23;19924;-72
2023/05/20 06:17:18;;;;;;;;;;;11.60;99.90;;;;;;6130449;23;19980;-72
2023/05/20 06:19:44;;;;;;;;;;;11.60;99.90;;;;;;6130127;23;19995;-72
2023/05/20 06:22:09;;;;;;;;;;;11.70;99.90;;;;;;6129306;23;19921;-72
2023/05/20 06:24:35;;;;;;;;;;;12.00;99.90;;;;;;6152602;23;19931;-72
2023/05/20 06:27:01;;;;;;;;;;;11.90;99.90;;;;;;6128631;23;20019;-73
2023/05/20 06:29:27;;;;;;;;;;;12.10;99.90;;;;;;6156235;23;19920;-74
2023/05/20 06:31:53;;;;;;;;;;;12.40;99.90;;;;;;6155556;23;19924;-73
2023/05/20 06:34:18;;;;;;;;;;;12.70;99.90;;;;;;6128985;23;19926;-75
2023/05/20 06:36:44;;;;;;;;;;;13.00;99.90;;;;;;6155447;23;19987;-75
2023/05/20 06:39:11;;;;;;;;;;;13.20;99.90;;;;;;6129650;23;19950;-73
2023/05/20 06:41:39;;;;;;;;;;;13.30;99.90;;;;;;6155275;23;19928;-73
2023/05/20 06:44:05;;;;;;;;;;;13.40;99.90;;;;;;6156648;23;19921;-72
2023/05/20 06:46:31;;;;;;;;;;;13.40;99.90;;;;;;6156341;23;20290;-71
2023/05/20 06:48:56;;;;;;;;;;;13.50;99.90;;;;;;6122215;23;20365;-72
2023/05/20 06:51:22;;;;;;;;;;;13.60;99.90;;;;;;6129153;23;19921;-74
2023/05/20 06:53:48;;;;;;;;;;;13.70;99.90;;;;;;6129557;23;19920;-72
2023/05/20 06:56:13;;;;;;;;;;;13.70;99.90;;;;;;6130106;23;19929;-72
2023/05/20 06:58:42;;;;;;;;;;;13.80;99.90;;;;;;6130274;23;20392;-72
2023/05/20 07:01:07;;;;;;;;;;;13.80;99.90;;;;;;6155155;23;20019;-72
2023/05/20 07:03:33;;;;;;;;;;;13.90;99.90;;;;;;6130056;23;20321;-75
2023/05/20 07:05:59;;;;;;;;;;;14.00;99.90;;;;;;6129876;23;20352;-74
2023/05/20 07:08:25;;;;;;;;;;;14.00;99.90;;;;;;6154093;23;19987;-73
2023/05/20 07:10:50;;;;;;;;;;;14.10;99.90;;;;;;6155973;23;19971;-74
2023/05/20 07:13:22;;;;;;;;;;;14.20;99.90;;;;;;6156130;23;19927;-72
2023/05/20 07:15:48;;;;;;;;;;;14.20;99.90;;;;;;6129146;23;19927;-74
2023/05/20 07:18:14;;;;;;;;;;;14.30;99.90;;;;;;6130071;23;19921;-74
2023/05/20 07:20:39;;;;;;;;;;;14.50;99.90;;;;;;6156609;23;19920;-74
2023/05/20 07:23:05;;;;;;;;;;;14.90;99.90;;;;;;6154831;23;19921;-74
2023/05/20 07:25:30;;;;;;;;;;;15.70;99.90;;;;;;6156425;23;20365;-74
2023/05/20 07:27:59;;;;;;;;;;;17.00;99.90;;;;;;6129733;23;20253;-74
2023/05/20 07:30:25;;;;;;;;;;;17.30;99.90;;;;;;6153816;23;20249;-74
2023/05/20 07:32:51;;;;;;;;;;;18.00;99.90;;;;;;6155494;23;19920;-74
2023/05/20 07:35:17;;;;;;;;;;;18.60;99.90;;;;;;6156332;23;20011;-74
2023/05/20 07:37:42;;;;;;;;;;;19.10;99.90;;;;;;6155586;23;20363;-74
2023/05/20 07:40:08;;;;;;;;;;;19.40;99.90;;;;;;6155753;23;19931;-74
2023/05/20 07:42:34;;;;;;;;;;;19.50;99.20;;;;;;6129426;23;19921;-74
2023/05/20 07:44:59;;;;;;;;;;;20.00;99.90;;;;;;6155435;23;19967;-74
2023/05/20 07:47:35;;;;;;;;;;;20.10;98.50;;;;;;6156042;23;20282;-74
2023/05/20 07:50:01;;;;;;;;;;;20.30;97.90;;;;;;6155338;23;19983;-74
2023/05/20 07:52:48;;;;;;;;;;;20.50;96.60;;;;;;6155873;23;19963;-74
2023/05/20 07:55:17;;;;;;;;;;;20.90;96.30;;;;;;6127569;23;19951;-74
2023/05/20 07:57:46;;;;;;;;;;;21.10;96.50;;;;;;6155264;23;20334;-74
2023/05/20 08:00:14;;;;;;;;;;;21.70;95.10;;;;;;6129097;23;19926;-74
2023/05/20 08:02:41;;;;;;;;;;;21.50;94.70;;;;;;6129723;23;19921;-74
2023/05/20 08:05:08;;;;;;;;;;;21.90;95.00;;;;;;6103750;23;19927;-74
2023/05/20 08:07:37;;;;;;;;;;;22.00;94.70;;;;;;6129569;23;19927;-74
2023/05/20 08:10:03;;;;;;;;;;;22.40;95.00;;;;;;6129086;23;19979;-75
2023/05/20 08:12:29;;;;;;;;;;;22.40;93.80;;;;;;6154702;23;19920;-74
2023/05/20 08:14:58;;;;;;;;;;;22.60;92.80;;;;;;6153893;23;20382;-73
2023/05/20 08:17:23;;;;;;;;;;;22.60;93.20;;;;;;6128286;23;19995;-74
2023/05/20 08:19:49;;;;;;;;;;;22.80;93.20;;;;;;6128242;23;19921;-74
2023/05/20 08:22:14;;;;;;;;;;;23.00;93.20;;;;;;6129598;23;19999;-74
2023/05/20 08:24:40;;;;;;;;;;;23.00;93.00;;;;;;6130033;23;20040;-73
2023/05/20 08:27:05;;;;;;;;;;;23.10;92.70;;;;;;6128390;23;19944;-74
2023/05/20 08:29:31;;;;;;;;;;;23.20;92.50;;;;;;6155610;23;19972;-73
2023/05/20 08:31:56;;;;;;;;;;;22.90;92.40;;;;;;6155392;23;19973;-73
2023/05/20 08:34:22;;;;;;;;;;;23.40;91.90;;;;;;6155988;23;20019;-74
2023/05/20 08:36:48;;;;;;;;;;;23.20;91.80;;;;;;6129066;23;20408;-74
2023/05/20 08:39:14;;;;;;;;;;;23.40;91.70;;;;;;6155164;23;19935;-73
2023/05/20 08:41:42;;;;;;;;;;;23.70;92.00;;;;;;6129296;23;19920;-72
2023/05/20 08:44:09;;;;;;;;;;;23.80;91.50;;;;;;6155623;23;20356;-72
2023/05/20 08:46:35;;;;;;;;;;;24.20;91.80;;;;;;6128818;23;20241;-73
2023/05/20 08:49:01;;;;;;;;;;;24.10;91.30;;;;;;6128975;23;19920;-73
2023/05/20 08:51:28;;;;;;;;;;;24.40;91.00;;;;;;6155479;23;19924;-72
2023/05/20 08:53:53;;;;;;;;;;;24.50;91.40;;;;;;6154750;23;19936;-73
2023/05/20 08:56:22;;;;;;;;;;;24.50;90.80;;;;;;6128805;23;19920;-73
2023/05/20 08:58:48;;;;;;;;;;;24.50;90.00;;;;;;6155848;23;19924;-73
2023/05/20 09:01:16;;;;;;;;;;;24.60;90.90;;;;;;6155056;23;19921;-72
2023/05/20 09:03:42;;;;;;;;;;;24.60;91.10;;;;;;6129506;23;19920;-72
2023/05/20 09:06:08;;;;;;;;;;;24.50;89.70;;;;;;6155557;23;20003;-72
2023/05/20 09:08:33;;;;;;;;;;;24.50;90.00;;;;;;6154526;23;19948;-75
2023/05/20 09:10:59;;;;;;;;;;;24.40;90.50;;;;;;6157038;23;19920;-72
2023/05/20 09:13:28;;;;;;;;;;;24.50;90.90;;;;;;6129641;23;19921;-73
2023/05/20 09:15:58;;;;;;;;;;;24.60;90.60;;;;;;6126812;23;19927;-73
2023/05/20 09:18:25;;;;;;;;;;;24.60;89.90;;;;;;6128151;23;20365;-75
2023/05/20 09:20:51;;;;;;;;;;;24.50;89.00;;;;;;6124173;23;20405;-74
2023/05/20 09:23:18;;;;;;;;;;;24.60;89.20;;;;;;6125543;23;19976;-74
2023/05/20 09:25:43;;;;;;;;;;;24.50;87.50;;;;;;6100416;23;19925;-75
2023/05/20 09:28:18;;;;;;;;;;;24.50;90.00;;;;;;6099222;23;20326;-74
2023/05/20 09:30:44;;;;;;;;;;;24.60;89.60;;;;;;6100347;23;20312;-73
2023/05/20 09:33:11;;;;;;;;;;;24.70;90.30;;;;;;6127830;23;20000;-74
2023/05/20 09:35:36;;;;;;;;;;;24.70;89.10;;;;;;6101468;23;19921;-73
2023/05/20 09:38:06;;;;;;;;;;;24.70;90.70;;;;;;6101376;23;20219;-74
2023/05/20 09:40:39;;;;;;;;;;;24.60;87.70;;;;;;6128979;23;19924;-72
2023/05/20 09:43:09;;;;;;;;;;;24.50;89.90;;;;;;6127687;23;19921;-73
2023/05/20 09:45:38;;;;;;;;;;;24.50;90.20;;;;;;6128496;23;19925;-73
2023/05/20 09:48:07;;;;;;;;;;;24.00;87.70;;;;;;6128327;23;19928;-73
2023/05/20 09:50:34;;;;;;;;;;;24.00;89.40;;;;;;6101576;23;19935;-73
2023/05/20 09:53:03;;;;;;;;;;;24.00;90.30;;;;;;6107556;23;20001;-72
2023/05/20 09:55:29;;;;;;;;;;;24.00;87.60;;;;;;6108641;23;19921;-74
2023/05/20 09:57:55;;;;;;;;;;;23.90;90.30;;;;;;6106910;23;19940;-71
2023/05/20 10:00:21;;;;;;;;;;;24.00;90.60;;;;;;6133626;23;19920;-70
2023/05/20 10:02:50;;;;;;;;;;;24.20;90.00;;;;;;6109058;23;19964;-71
2023/05/20 10:05:20;;;;;;;;;;;24.20;89.30;;;;;;6106688;23;19948;-71
2023/05/20 10:08:04;;;;;;;;;;;24.50;90.40;;;;;;6107458;23;19921;-72
2023/05/20 10:10:48;;;;;;;;;;;24.30;89.80;;;;;;6132850;23;19928;-72
2023/05/20 10:13:41;;;;;;;;;;;24.30;88.50;;;;;;6104442;23;19973;-71
2023/05/20 10:16:14;;;;;;;;;;;24.20;88.70;;;;;;6097238;23;19931;-71
2023/05/20 10:18:40;;;;;;;;;;;24.30;89.80;;;;;;6126886;23;19921;-71
2023/05/20 10:21:14;;;;;;;;;;;24.20;90.30;;;;;;6101101;23;20046;-71
2023/05/20 10:23:39;;;;;;;;;;;24.20;90.60;;;;;;6101253;23;19921;-71
2023/05/20 10:26:05;;;;;;;;;;;24.20;89.50;;;;;;6125832;23;19974;-71
2023/05/20 10:28:33;;;;;;;;;;;24.00;90.70;;;;;;6123308;23;19917;-73
2023/05/20 10:30:59;;;;;;;;;;;24.20;90.20;;;;;;6099338;23;20286;-72
2023/05/20 10:33:28;;;;;;;;;;;23.80;90.60;;;;;;6098399;23;19924;-72
2023/05/20 10:35:56;;;;;;;;;;;23.90;90.30;;;;;;6124948;23;19920;-73
2023/05/20 10:38:22;;;;;;;;;;;23.90;90.50;;;;;;6098981;23;19921;-72
2023/05/20 10:40:47;;;;;;;;;;;24.00;90.20;;;;;;6098137;23;20238;-73
2023/05/20 10:43:14;;;;;;;;;;;24.00;90.70;;;;;;6126421;23;19932;-72
2023/05/20 10:45:50;;;;;;;;;;;23.90;90.30;;;;;;6100383;23;20064;-74
2023/05/20 10:48:24;;;;;;;;;;;23.60;90.50;;;;;;6116143;23;19960;-72
2023/05/20 10:51:05;;;;;;;;;;;23.80;91.50;;;;;;6122940;23;20030;-74
2023/05/20 10:53:45;;;;;;;;;;;23.90;91.10;;;;;;6123236;23;19927;-74
2023/05/20 10:56:17;;;;;;;;;;;23.90;91.30;;;;;;6097402;23;20060;-70
2023/05/20 10:58:43;;;;;;;;;;;23.90;91.80;;;;;;6123987;23;20257;-70
2023/05/20 11:01:09;;;;;;;;;;;23.80;91.50;;;;;;6123056;23;19925;-71
2023/05/20 11:03:35;;;;;;;;;;;23.60;91.10;;;;;;6125703;23;19921;-72
2023/05/20 11:06:13;;;;;;;;;;;23.70;91.20;;;;;;6126270;23;19925;-72
2023/05/20 11:08:38;;;;;;;;;;;23.70;91.50;;;;;;6099421;23;19916;-73
2023/05/20 11:11:04;;;;;;;;;;;23.90;91.40;;;;;;6124526;23;19992;-72
2023/05/20 11:13:30;;;;;;;;;;;23.90;91.80;;;;;;6126116;23;20322;-72
2023/05/20 11:15:56;;;;;;;;;;;23.90;90.90;;;;;;6099016;23;19921;-76
2023/05/20 11:18:22;;;;;;;;;;;23.70;91.90;;;;;;6126556;23;19928;-72
2023/05/20 11:20:48;;;;;;;;;;;23.70;91.70;;;;;;6099034;23;19921;-75
2023/05/20 11:23:14;;;;;;;;;;;23.70;92.00;;;;;;6126407;23;19964;-74
2023/05/20 11:25:40;;;;;;;;;;;23.60;91.20;;;;;;6099420;23;20257;-76
2023/05/20 11:28:12;;;;;;;;;;;23.60;91.40;;;;;;6125570;23;19991;-77
2023/05/20 11:30:38;;;;;;;;;;;23.50;91.30;;;;;;6099785;23;20286;-76
2023/05/20 11:33:38;;;;;;;;;;;23.50;92.50;;;;;;6142685;23;19929;-73
2023/05/20 11:36:29;;;;;;;;;;;23.30;91.50;;;;;;6154905;23;19928;-72
2023/05/20 11:38:58;;;;;;;;;;;23.70;91.80;;;;;;6153616;23;19921;-73
2023/05/20 11:41:25;;;;;;;;;;;22.90;92.10;;;;;;6155456;23;19956;-73
2023/05/20 11:43:55;;;;;;;;;;;22.90;92.20;;;;;;6153426;23;20242;-77
2023/05/20 11:46:21;;;;;;;;;;;23.00;92.00;;;;;;6156158;23;19927;-73
2023/05/20 11:48:50;;;;;;;;;;;23.00;92.40;;;;;;6152397;23;19920;-75
2023/05/20 11:51:17;;;;;;;;;;;23.00;92.40;;;;;;6153202;23;19927;-78
2023/05/20 11:53:45;;;;;;;;;;;22.90;92.90;;;;;;6155265;23;19991;-78
2023/05/20 11:56:13;;;;;;;;;;;23.00;92.60;;;;;;6153594;23;19928;-78
2023/05/20 11:58:38;;;;;;;;;;;23.20;93.20;;;;;;6155884;23;19920;-78
2023/05/20 12:01:04;;;;;;;;;;;23.10;92.40;;;;;;6155717;23;19928;-78
2023/05/20 12:03:30;;;;;;;;;;;22.90;92.90;;;;;;6153405;23;20227;-79
2023/05/20 12:05:56;;;;;;;;;;;22.80;92.80;;;;;;6153222;23;19921;-76
2023/05/20 12:08:21;;;;;;;;;;;23.00;93.60;;;;;;6155725;23;19927;-80
2023/05/20 12:10:47;;;;;;;;;;;22.80;93.30;;;;;;6153143;23;19924;-75
2023/05/20 12:13:12;;;;;;;;;;;22.90;93.20;;;;;;6153970;23;19944;-78
2023/05/20 12:15:41;;;;;;;;;;;22.80;93.00;;;;;;6153587;23;19920;-73
2023/05/20 12:18:07;;;;;;;;;;;22.70;92.90;;;;;;6151686;23;19920;-73
2023/05/20 12:20:33;;;;;;;;;;;22.60;93.60;;;;;;6151958;23;19921;-73
2023/05/20 12:22:59;;;;;;;;;;;22.60;93.40;;;;;;6151572;23;20337;-75
2023/05/20 12:25:25;;;;;;;;;;;22.60;94.00;;;;;;6152091;23;19929;-72
2023/05/20 12:27:51;;;;;;;;;;;22.40;93.00;;;;;;6153819;23;20001;-74
2023/05/20 12:30:17;;;;;;;;;;;22.40;93.00;;;;;;6154093;23;19947;-76
2023/05/20 12:32:43;;;;;;;;;;;22.30;93.60;;;;;;6172578;23;19939;-74
2023/05/20 12:35:09;;;;;;;;;;;22.40;93.40;;;;;;6158683;23;20329;-75
2023/05/20 12:37:36;;;;;;;;;;;22.30;93.50;;;;;;6159458;23;19926;-75
2023/05/20 12:40:07;;;;;;;;;;;22.30;93.30;;;;;;6157722;23;19956;-75
2023/05/20 12:42:39;;;;;;;;;;;22.30;93.40;;;;;;6159090;23;19920;-74
2023/05/20 12:45:05;;;;;;;;;;;22.30;94.00;;;;;;6158214;23;19928;-74
2023/05/20 12:50:17;;;;;;;;;;;22.40;93.80;;;;;;6184075;23;19920;-74
2023/05/20 12:52:45;;;;;;;;;;;22.50;93.30;;;;;;6184775;23;19995;-74
2023/05/20 12:55:14;;;;;;;;;;;22.30;93.60;;;;;;6185289;23;19921;-75
2023/05/20 12:57:40;;;;;;;;;;;22.20;93.60;;;;;;6186237;23;19971;-74
2023/05/20 13:00:10;;;;;;;;;;;22.10;93.50;;;;;;6157245;23;19960;-72
2023/05/20 13:02:38;;;;;;;;;;;22.20;93.00;;;;;;6188559;23;19964;-75
2023/05/20 13:05:08;;;;;;;;;;;22.00;93.70;;;;;;6161355;23;20256;-78
2023/05/20 13:07:37;;;;;;;;;;;21.90;93.40;;;;;;6190505;23;19917;-73
2023/05/20 13:10:05;;;;;;;;;;;22.00;93.60;;;;;;6161612;23;19924;-72
2023/05/20 13:12:44;;;;;;;;;;;22.10;93.90;;;;;;6161496;23;19920;-71
2023/05/20 13:15:11;;;;;;;;;;;22.20;94.60;;;;;;6160461;23;19927;-73
2023/05/20 13:17:39;;;;;;;;;;;22.30;93.80;;;;;;6188293;23;19927;-78
2023/05/20 13:20:06;;;;;;;;;;;22.40;93.90;;;;;;6187533;23;19935;-79
2023/05/20 14:03:39;;;;;;;;;;;21.80;94.00;;;;;;6186510;23;20008;-74
2023/05/20 14:06:10;;;;;;;;;;;22.90;94.30;;;;;;6137483;23;19928;-76
2023/05/20 14:08:48;;;;;;;;;;;21.50;93.90;;;;;;6186999;23;20438;-81
2023/05/20 14:11:17;;;;;;;;;;;21.60;94.40;;;;;;6156968;23;19962;-74
2023/05/20 14:20:06;;;;;;;;;;;21.40;93.50;;;;;;6156838;23;19945;-75
2023/05/20 14:22:31;;;;;;;;;;;20.90;93.90;;;;;;6129077;23;19931;-73
2023/05/20 14:25:04;;;;;;;;;;;21.60;94.20;;;;;;6129995;23;19931;-73
2023/05/20 14:27:33;;;;;;;;;;;21.70;93.80;;;;;;6156124;23;19917;-75
2023/05/20 14:29:58;;;;;;;;;;;21.80;93.70;;;;;;6129375;23;20308;-73
2023/05/20 14:32:27;;;;;;;;;;;21.90;93.50;;;;;;6152665;23;19925;-77
2023/05/20 14:34:53;;;;;;;;;;;21.80;92.90;;;;;;6128103;23;19923;-75
2023/05/20 14:50:19;;;;;;;;;;;21.80;92.90;;;;;;6155818;23;19944;-80
2023/05/20 14:52:45;;;;;;;;;;;21.60;92.50;;;;;;6154123;23;19920;-79
2023/05/20 14:55:10;;;;;;;;;;;21.30;92.30;;;;;;6129439;23;19927;-80
2023/05/20 14:57:36;;;;;;;;;;;21.40;92.40;;;;;;6130848;23;20333;-78
2023/05/20 15:00:02;;;;;;;;;;;21.30;92.00;;;;;;6127884;23;19921;-85
2023/05/20 15:15:37;;;;;;;;;;;21.70;93.30;;;;;;6166130;23;19921;-72
2023/05/20 15:18:06;;;;;;;;;;;21.60;94.50;;;;;;6126737;23;19956;-73
2023/05/20 15:21:18;;;;;;;;;;;21.30;94.60;;;;;;6154557;23;19921;-73
2023/05/20 15:27:42;;;;;;;;;;;20.60;92.80;;;;;;6063517;23;19932;-74
2023/05/20 15:30:11;;;;;;;;;;;21.10;92.60;;;;;;6065644;23;19929;-73
2023/05/20 15:32:38;;;;;;;;;;;21.50;92.80;;;;;;6041052;23;19926;-72
2023/05/20 15:35:04;;;;;;;;;;;21.40;92.90;;;;;;6094595;23;20007;-72
2023/05/20 15:37:30;;;;;;;;;;;21.20;92.60;;;;;;6155224;23;19930;-73
2023/05/20 15:39:55;;;;;;;;;;;21.30;93.10;;;;;;6155059;23;19991;-72
2023/05/20 15:42:21;;;;;;;;;;;21.10;93.30;;;;;;6158910;23;19945;-72